Time;durP1;ratioP1;P1;durP2;ratioP2;P2;SDS_P1;SDS_P2;PMS_P1;PMS_P2;Temp;Humidity;BMP_temperature;BMP_pressure;BME280_temperature;BME280_humidity;BME280_pressure;Samples;Min_cycle;Max_cycle;Signal;HPM_P1;HPM_P2
2022/01/01 00:01:29;;;;;;;;;;;;;;;9.43;59.70;100064.53;4430715;32;19989;-96
2022/01/01 00:03:54;;;;;;;;;;;;;;;9.34;59.70;100058.69;4430559;32;19973;-96
2022/01/01 00:06:19;;;;;;;;;;;;;;;9.47;59.70;100063.59;4444275;32;19973;-96
2022/01/01 00:08:44;;;;;;;;;;;;;;;9.29;59.70;100056.22;4430918;32;20021;-96
2022/01/01 00:11:10;;;;;;;;;;;;;;;9.21;59.69;100052.91;4430462;32;19993;-96
2022/01/01 00:13:35;;;;;;;;;;;;;;;9.29;59.69;100044.97;4430740;32;20012;-96
2022/01/01 00:16:00;;;;;;;;;;;;;;;9.15;59.68;100053.03;4430845;32;19973;-96
2022/01/01 00:18:25;;;;;;;;;;;;;;;8.96;59.67;100052.56;4430655;32;19981;-96
2022/01/01 00:20:51;;;;;;;;;;;;;;;8.73;59.65;100055.62;4430611;32;20311;-96
2022/01/01 00:23:16;;;;;;;;;;;;;;;8.93;59.67;100047.44;4430673;32;20017;-96
2022/01/01 00:25:41;;;;;;;;;;;;;;;8.99;59.67;100034.34;4430616;32;20030;-96
2022/01/01 00:28:06;;;;;;;;;;;;;;;8.90;59.67;100040.56;4443324;32;20352;-96
2022/01/01 00:30:32;;;;;;;;;;;;;;;8.83;59.67;100033.81;4430980;32;20049;-96
2022/01/01 00:32:57;;;;;;;;;;;;;;;9.00;59.68;100032.63;4430550;32;20011;-96
2022/01/01 00:35:22;;;;;;;;;;;;;;;8.97;59.68;100020.53;4430323;32;19981;-96
2022/01/01 00:37:48;;;;;;;;;;;;;;;8.89;59.66;100017.25;4430219;32;20242;-96
2022/01/01 00:40:13;;;;;;;;;;;;;;;9.01;59.68;100029.12;4430197;32;19993;-96
2022/01/01 00:42:40;;;;;;;;;;;;;;;8.74;59.66;100022.75;4429775;32;20372;-96
2022/01/01 00:45:06;;;;;;;;;;;;;;;8.63;59.66;100027.31;4443205;32;20034;-96
2022/01/01 00:47:31;;;;;;;;;;;;;;;8.51;59.66;100037.00;4430360;32;20315;-96
2022/01/01 00:49:57;;;;;;;;;;;;;;;8.50;59.65;100032.72;4430287;32;20297;-96
2022/01/01 00:52:22;;;;;;;;;;;;;;;8.56;59.65;100030.03;4430392;32;19972;-96
2022/01/01 00:54:47;;;;;;;;;;;;;;;8.66;59.66;100033.28;4430280;32;20276;-96
2022/01/01 00:57:12;;;;;;;;;;;;;;;8.60;59.65;100023.87;4430478;32;19993;-96
2022/01/01 00:59:37;;;;;;;;;;;;;;;8.57;59.65;100028.28;4430273;32;19993;-96
2022/01/01 01:02:03;;;;;;;;;;;;;;;8.60;59.66;100029.06;4430193;32;19996;-96
2022/01/01 01:04:28;;;;;;;;;;;;;;;8.47;59.65;100037.09;4430379;32;20041;-96
2022/01/01 01:06:53;;;;;;;;;;;;;;;8.52;59.66;100041.34;4443046;32;19985;-96
2022/01/01 01:09:19;;;;;;;;;;;;;;;8.56;59.65;100043.00;4430412;32;20030;-96
2022/01/01 01:11:47;;;;;;;;;;;;;;;8.51;59.64;100056.91;4430233;32;19988;-96
2022/01/01 01:14:20;;;;;;;;;;;;;;;8.42;59.64;100052.75;4430646;32;19981;-96
2022/01/01 01:16:45;;;;;;;;;;;;;;;8.49;59.64;100050.91;4431139;32;20005;-96
2022/01/01 01:19:10;;;;;;;;;;;;;;;8.55;59.65;100046.47;4430272;32;20034;-96
2022/01/01 01:21:35;;;;;;;;;;;;;;;8.58;59.65;100046.41;4430347;32;20000;-95
2022/01/01 01:24:01;;;;;;;;;;;;;;;8.59;59.66;100052.47;4430412;32;20004;-96
2022/01/01 01:26:28;;;;;;;;;;;;;;;8.54;59.65;100052.56;4430507;32;20648;-96
2022/01/01 01:28:54;;;;;;;;;;;;;;;8.69;59.66;100043.59;4430365;32;20354;-96
2022/01/01 01:31:20;;;;;;;;;;;;;;;8.66;59.65;100040.22;4430377;32;20060;-96
2022/01/01 01:33:45;;;;;;;;;;;;;;;8.67;59.66;100039.31;4430127;32;19973;-96
2022/01/01 01:36:10;;;;;;;;;;;;;;;8.86;59.66;100044.13;4429825;32;20019;-96
2022/01/01 01:38:36;;;;;;;;;;;;;;;8.73;59.66;100040.06;4430139;32;19989;-96
2022/01/01 01:41:03;;;;;;;;;;;;;;;8.49;59.64;100054.34;4430174;32;20318;-96
2022/01/01 01:43:28;;;;;;;;;;;;;;;8.44;59.65;100058.78;4430164;32;19997;-96
2022/01/01 01:45:53;;;;;;;;;;;;;;;8.49;59.64;100051.75;4430012;32;19988;-96
2022/01/01 01:48:18;;;;;;;;;;;;;;;8.42;59.64;100047.56;4430055;32;20031;-96
2022/01/01 01:50:44;;;;;;;;;;;;;;;8.54;59.65;100049.09;4429913;32;19981;-96
2022/01/01 01:53:09;;;;;;;;;;;;;;;8.35;59.63;100045.13;4429637;32;20023;-96
2022/01/01 01:55:34;;;;;;;;;;;;;;;8.43;59.64;100044.09;4430081;32;19985;-96
2022/01/01 01:58:00;;;;;;;;;;;;;;;8.31;59.64;100047.75;4430146;32;19985;-96
2022/01/01 02:01:07;;;;;;;;;;;;;;;8.43;59.64;100043.25;4430037;32;20031;-96
2022/01/01 02:03:11;;;;;;;;;;;;;;;8.63;59.65;100054.09;4444106;32;19991;-96
2022/01/01 02:05:36;;;;;;;;;;;;;;;8.81;59.66;100050.31;4429786;32;19985;-96
2022/01/01 02:08:02;;;;;;;;;;;;;;;8.95;59.67;100050.00;4429613;32;19988;-96
2022/01/01 02:10:27;;;;;;;;;;;;;;;9.11;59.68;100048.81;4429666;32;19949;-96
2022/01/01 02:12:55;;;;;;;;;;;;;;;9.18;59.68;100042.59;4441953;32;20004;-96
2022/01/01 02:18:11;;;;;;;;;;;;;;;9.22;59.69;100044.22;4444443;32;19988;-96
2022/01/01 02:20:36;;;;;;;;;;;;;;;9.13;59.68;100047.03;4429614;32;20309;-96
2022/01/01 02:23:02;;;;;;;;;;;;;;;9.19;59.69;100045.16;4430594;32;19977;-96
2022/01/01 02:25:27;;;;;;;;;;;;;;;9.12;59.67;100048.78;4431201;32;20003;-96
2022/01/01 02:27:52;;;;;;;;;;;;;;;9.30;59.70;100052.72;4431130;32;20420;-96
2022/01/01 02:30:18;;;;;;;;;;;;;;;9.12;59.67;100061.75;4431116;32;20016;-96
2022/01/01 02:32:43;;;;;;;;;;;;;;;9.21;59.69;100056.34;4430589;32;20322;-94
2022/01/01 02:35:10;;;;;;;;;;;;;;;9.14;59.68;100059.12;4430989;32;20312;-96
2022/01/01 02:37:35;;;;;;;;;;;;;;;9.22;59.69;100058.06;4443466;32;20008;-96
2022/01/01 02:40:00;;;;;;;;;;;;;;;9.28;59.69;100049.31;4430873;32;20025;-95
2022/01/01 02:42:26;;;;;;;;;;;;;;;9.35;59.70;100052.62;4430479;32;19976;-95
2022/01/01 02:44:53;;;;;;;;;;;;;;;9.40;59.70;100049.03;4430599;32;20038;-95
2022/01/01 02:47:19;;;;;;;;;;;;;;;9.69;59.72;100044.88;4430934;32;19997;-95
2022/01/01 02:49:44;;;;;;;;;;;;;;;9.71;59.71;100049.19;4430855;32;19997;-95
2022/01/01 02:52:09;;;;;;;;;;;;;;;9.77;59.72;100045.59;4430362;32;20019;-96
2022/01/01 02:54:34;;;;;;;;;;;;;;;10.11;59.74;100038.62;4430336;32;19986;-95
2022/01/01 02:57:00;;;;;;;;;;;;;;;10.28;59.74;100035.66;4430410;32;20000;-95
2022/01/01 02:59:25;;;;;;;;;;;;;;;10.43;59.76;100030.06;4430830;32;20031;-95
2022/01/01 03:01:51;;;;;;;;;;;;;;;10.63;59.77;100031.22;4430372;32;19980;-95
2022/01/01 03:04:16;;;;;;;;;;;;;;;10.80;59.77;100018.59;4443532;32;20026;-96
2022/01/01 03:06:41;;;;;;;;;;;;;;;10.96;59.78;100035.50;4430638;32;20337;-95
2022/01/01 03:09:06;;;;;;;;;;;;;;;11.14;59.79;100028.06;4443315;32;20036;-95
2022/01/01 03:11:32;;;;;;;;;;;;;;;11.15;59.79;100029.75;4404715;32;808361;-94
2022/01/01 03:13:57;;;;;;;;;;;;;;;11.26;59.80;100036.34;4430083;32;20400;-95
2022/01/01 03:16:22;;;;;;;;;;;;;;;11.43;59.81;100029.75;4443192;32;20012;-95
2022/01/01 03:18:47;;;;;;;;;;;;;;;11.50;59.81;100039.94;4429875;32;20042;-95
2022/01/01 03:21:13;;;;;;;;;;;;;;;11.38;59.81;100038.59;4430452;32;20034;-96
2022/01/01 03:23:38;;;;;;;;;;;;;;;11.54;59.82;100045.91;4430187;32;19985;-95
2022/01/01 03:26:03;;;;;;;;;;;;;;;11.71;59.82;100042.78;4430016;32;20019;-96
2022/01/01 03:28:28;;;;;;;;;;;;;;;11.79;59.83;100049.47;4429767;32;19968;-96
2022/01/01 03:30:54;;;;;;;;;;;;;;;11.81;59.82;100047.66;4430338;32;20020;-95
2022/01/01 03:33:19;;;;;;;;;;;;;;;11.81;59.82;100052.03;4429330;32;19990;-95
2022/01/01 03:35:44;;;;;;;;;;;;;;;11.87;59.83;100060.53;4428850;32;19985;-96
2022/01/01 03:38:09;;;;;;;;;;;;;;;11.67;59.81;100053.31;4428685;32;20777;-92
2022/01/01 03:40:35;;;;;;;;;;;;;;;11.74;59.83;100060.94;4427941;32;20054;-92
2022/01/01 03:43:00;;;;;;;;;;;;;;;11.73;59.82;100061.84;4440061;32;25763;-91
2022/01/01 03:45:25;;;;;;;;;;;;;;;11.66;59.82;100061.19;4427161;32;20064;-91
2022/01/01 03:47:51;;;;;;;;;;;;;;;11.57;59.81;100066.66;4440077;32;19973;-89
2022/01/01 03:50:17;;;;;;;;;;;;;;;11.67;59.83;100066.34;4427257;32;20048;-91
2022/01/01 03:52:42;;;;;;;;;;;;;;;11.47;59.81;100065.25;4439304;32;29265;-91
2022/01/01 03:55:08;;;;;;;;;;;;;;;11.69;59.82;100064.53;4427357;32;19990;-91
2022/01/01 03:57:33;;;;;;;;;;;;;;;11.71;59.82;100058.44;4427440;32;20012;-92
2022/01/01 04:00:00;;;;;;;;;;;;;;;11.64;59.82;100071.66;4426734;32;29419;-92
2022/01/01 04:02:25;;;;;;;;;;;;;;;11.56;59.82;100071.03;4427241;32;19985;-91
2022/01/01 04:04:50;;;;;;;;;;;;;;;11.59;59.81;100072.69;4427585;32;20020;-96
2022/01/01 04:07:16;;;;;;;;;;;;;;;11.63;59.82;100079.53;4428728;32;19976;-91
2022/01/01 04:09:41;;;;;;;;;;;;;;;11.85;59.83;100078.00;4428318;32;19989;-93
2022/01/01 04:12:06;;;;;;;;;;;;;;;11.87;59.83;100088.37;4428093;32;20041;-93
2022/01/01 04:14:31;;;;;;;;;;;;;;;11.88;59.83;100080.50;4428129;32;20016;-94
2022/01/01 04:16:58;;;;;;;;;;;;;;;11.95;59.84;100095.03;4429700;32;19981;-94
2022/01/01 04:19:31;;;;;;;;;;;;;;;11.84;59.83;100083.25;4442674;32;20593;-95
2022/01/01 04:21:57;;;;;;;;;;;;;;;11.98;59.84;100094.94;4430699;32;19998;-95
2022/01/01 04:24:22;;;;;;;;;;;;;;;12.11;59.84;100099.78;4429321;32;20005;-95
2022/01/01 04:26:47;;;;;;;;;;;;;;;12.11;59.84;100103.25;4429586;32;19997;-95
2022/01/01 04:29:13;;;;;;;;;;;;;;;12.10;59.85;100105.91;4429491;32;20025;-94
2022/01/01 04:31:38;;;;;;;;;;;;;;;12.11;59.84;100108.47;4429378;32;20004;-95
2022/01/01 04:34:03;;;;;;;;;;;;;;;12.11;59.84;100111.06;4442298;32;19997;-94
2022/01/01 04:36:28;;;;;;;;;;;;;;;12.06;59.85;100101.66;4441818;32;19989;-94
2022/01/01 04:38:54;;;;;;;;;;;;;;;11.99;59.84;100108.84;4429130;32;19977;-93
2022/01/01 04:41:19;;;;;;;;;;;;;;;11.93;59.83;100096.84;4429638;32;19996;-93
2022/01/01 04:43:46;;;;;;;;;;;;;;;11.91;59.84;100101.28;4428667;32;20989;-93
2022/01/01 04:46:11;;;;;;;;;;;;;;;11.89;59.83;100094.41;4429067;32;20031;-95
2022/01/01 04:48:37;;;;;;;;;;;;;;;11.98;59.84;100092.34;4429512;32;19989;-94
2022/01/01 04:51:07;;;;;;;;;;;;;;;11.93;59.83;100107.28;4429344;32;20097;-94
2022/01/01 04:53:33;;;;;;;;;;;;;;;11.92;59.84;100112.56;4429257;32;20009;-93
2022/01/01 04:56:02;;;;;;;;;;;;;;;11.96;59.83;100104.56;4429161;32;19988;-94
2022/01/01 04:58:27;;;;;;;;;;;;;;;11.95;59.83;100125.50;4429804;32;20018;-94
2022/01/01 05:00:53;;;;;;;;;;;;;;;12.07;59.85;100111.22;4429211;32;20542;-94
2022/01/01 05:03:18;;;;;;;;;;;;;;;12.24;59.85;100101.91;4428889;32;20045;-94
2022/01/01 05:05:43;;;;;;;;;;;;;;;12.18;59.85;100104.75;4428603;32;19981;-95
2022/01/01 05:08:09;;;;;;;;;;;;;;;12.15;59.85;100097.00;4431111;32;19985;-96
2022/01/01 05:10:35;;;;;;;;;;;;;;;12.09;59.85;100083.31;4436821;32;19990;-96
2022/01/01 05:13:02;;;;;;;;;;;;;;;11.99;59.84;100096.66;4437518;32;20006;-96
2022/01/01 05:15:31;;;;;;;;;;;;;;;12.11;59.84;100090.19;4449919;32;19994;-96
2022/01/01 05:18:22;;;;;;;;;;;;;;;12.21;59.84;100082.91;4451974;32;19953;-96
2022/01/01 05:20:48;;;;;;;;;;;;;;;12.27;59.85;100093.97;4449295;32;19957;-96
2022/01/01 05:23:14;;;;;;;;;;;;;;;12.31;59.86;100091.28;4437427;32;19989;-96
2022/01/01 05:25:44;;;;;;;;;;;;;;;12.28;59.85;100092.22;4434424;32;20010;-96
2022/01/01 05:28:13;;;;;;;;;;;;;;;12.16;59.85;100087.44;4436010;32;19957;-96
2022/01/01 05:30:38;;;;;;;;;;;;;;;12.08;59.84;100081.63;4446773;32;20000;-95
2022/01/01 05:33:03;;;;;;;;;;;;;;;12.09;59.84;100099.84;4430051;32;20056;-96
2022/01/01 05:35:52;;;;;;;;;;;;;;;12.07;59.85;100082.53;4431782;32;19982;-96
2022/01/01 05:38:34;;;;;;;;;;;;;;;12.15;59.85;100075.28;4466818;32;19987;-96
2022/01/01 05:41:05;;;;;;;;;;;;;;;12.10;59.84;100079.81;4440071;32;19981;-96
2022/01/01 05:43:47;;;;;;;;;;;;;;;12.13;59.84;100082.31;4466787;32;19968;-95
2022/01/01 05:46:15;;;;;;;;;;;;;;;12.20;59.84;100082.06;4452756;27;19997;-95
2022/01/01 05:48:40;;;;;;;;;;;;;;;12.33;59.85;100076.44;4436024;32;19973;-96
2022/01/01 05:51:08;;;;;;;;;;;;;;;12.31;59.86;100075.63;4422038;32;20626;-96
2022/01/01 05:53:34;;;;;;;;;;;;;;;12.34;59.85;100084.22;4419065;32;20033;-95
2022/01/01 05:56:05;;;;;;;;;;;;;;;12.41;59.86;100083.09;4431134;32;19968;-95
2022/01/01 05:58:31;;;;;;;;;;;;;;;12.43;59.86;100090.88;4424795;32;20044;-92
2022/01/01 06:00:57;;;;;;;;;;;;;;;12.34;59.86;100089.44;4425156;32;20085;-92
2022/01/01 06:03:22;;;;;;;;;;;;;;;12.24;59.85;100103.69;4426009;32;20032;-94
2022/01/01 06:05:51;;;;;;;;;;;;;;;12.22;59.85;100095.03;4425935;32;19977;-95
2022/01/01 06:08:17;;;;;;;;;;;;;;;12.39;59.86;100102.31;4425367;32;20015;-91
2022/01/01 06:10:42;;;;;;;;;;;;;;;12.41;59.86;100105.72;4425324;32;20307;-93
2022/01/01 06:13:07;;;;;;;;;;;;;;;12.35;59.86;100114.63;4424693;32;20008;-96
2022/01/01 06:15:32;;;;;;;;;;;;;;;12.23;59.85;100113.25;4425337;32;20020;-91
2022/01/01 06:17:58;;;;;;;;;;;;;;;12.41;59.86;100114.41;4424305;32;19993;-90
2022/01/01 06:20:23;;;;;;;;;;;;;;;12.23;59.85;100123.69;4425262;32;20001;-93
2022/01/01 06:22:48;;;;;;;;;;;;;;;12.38;59.86;100122.34;4424970;32;20069;-91
2022/01/01 06:25:13;;;;;;;;;;;;;;;12.48;59.86;100134.19;4424575;32;20032;-92
2022/01/01 06:27:39;;;;;;;;;;;;;;;12.42;59.86;100136.16;4437748;32;20021;-93
2022/01/01 06:30:04;;;;;;;;;;;;;;;12.33;59.85;100145.16;4425119;32;20033;-92
2022/01/01 06:32:30;;;;;;;;;;;;;;;12.55;59.87;100142.69;4437432;32;20037;-90
2022/01/01 06:34:55;;;;;;;;;;;;;;;12.39;59.86;100144.94;4437781;32;20302;-91
2022/01/01 06:37:20;;;;;;;;;;;;;;;12.39;59.86;100152.78;4424458;32;20002;-93
2022/01/01 06:39:45;;;;;;;;;;;;;;;12.51;59.87;100144.53;4424736;32;20318;-92
2022/01/01 06:42:11;;;;;;;;;;;;;;;12.34;59.85;100149.47;4424361;32;20012;-93
2022/01/01 06:44:36;;;;;;;;;;;;;;;12.35;59.86;100150.31;4424362;32;21014;-92
2022/01/01 06:47:01;;;;;;;;;;;;;;;12.48;59.86;100157.69;4423251;32;19990;-91
2022/01/01 06:49:26;;;;;;;;;;;;;;;12.44;59.86;100161.31;4423322;32;19990;-91
2022/01/01 06:51:52;;;;;;;;;;;;;;;12.47;59.86;100155.97;4423976;32;20045;-91
2022/01/01 06:54:17;;;;;;;;;;;;;;;12.35;59.86;100163.38;4422993;32;26609;-90
2022/01/01 06:56:42;;;;;;;;;;;;;;;12.64;59.87;100160.66;4423000;32;20291;-91
2022/01/01 06:59:09;;;;;;;;;;;;;;;12.65;59.87;100162.34;4422701;32;20038;-90
2022/01/01 07:01:35;;;;;;;;;;;;;;;12.66;59.88;100178.88;4423179;32;20017;-89
2022/01/01 07:04:00;;;;;;;;;;;;;;;12.59;59.88;100186.91;4422944;32;19978;-90
2022/01/01 07:06:25;;;;;;;;;;;;;;;12.72;59.87;100181.28;4436134;32;19970;-91
2022/01/01 07:08:50;;;;;;;;;;;;;;;12.56;59.87;100184.41;4423850;32;20381;-90
2022/01/01 07:11:15;;;;;;;;;;;;;;;12.58;59.86;100195.66;4425237;32;19997;-90
2022/01/01 07:13:41;;;;;;;;;;;;;;;12.75;59.88;100197.69;4437377;32;24784;-89
2022/01/01 07:16:06;;;;;;;;;;;;;;;12.74;59.89;100197.75;4437843;32;19980;-90
2022/01/01 07:18:31;;;;;;;;;;;;;;;12.80;59.88;100202.78;4425153;32;19985;-89
2022/01/01 07:20:56;;;;;;;;;;;;;;;12.87;59.88;100204.28;4425046;32;20008;-89
2022/01/01 07:23:22;;;;;;;;;;;;;;;12.95;59.89;100198.78;4424630;32;20015;-90
2022/01/01 07:25:47;;;;;;;;;;;;;;;12.86;59.88;100211.25;4437141;32;22535;-88
2022/01/01 07:28:14;;;;;;;;;;;;;;;12.81;59.88;100228.84;4424691;32;20381;-89
2022/01/01 07:30:40;;;;;;;;;;;;;;;12.84;59.88;100226.13;4424879;32;20013;-90
2022/01/01 07:33:05;;;;;;;;;;;;;;;12.91;59.89;100232.84;4437754;32;19970;-89
2022/01/01 07:35:30;;;;;;;;;;;;;;;13.00;59.89;100231.66;4424827;32;20047;-92
2022/01/01 07:37:55;;;;;;;;;;;;;;;12.89;59.88;100239.03;4424985;32;19985;-89
2022/01/01 07:40:21;;;;;;;;;;;;;;;12.90;59.89;100245.97;4438127;32;19997;-90
2022/01/01 07:42:46;;;;;;;;;;;;;;;12.94;59.89;100237.13;4440433;32;20008;-94
2022/01/01 07:45:11;;;;;;;;;;;;;;;12.75;59.88;100249.06;4440544;32;19978;-96
2022/01/01 07:47:37;;;;;;;;;;;;;;;12.74;59.88;100243.00;4426602;32;20000;-96
2022/01/01 07:50:03;;;;;;;;;;;;;;;12.80;59.88;100248.03;4427205;32;20000;-94
2022/01/01 07:52:28;;;;;;;;;;;;;;;12.74;59.88;100256.06;4425990;32;20030;-94
2022/01/01 07:54:53;;;;;;;;;;;;;;;12.66;59.88;100254.63;4425666;32;24656;-92
2022/01/01 07:57:18;;;;;;;;;;;;;;;12.71;59.87;100264.00;4425342;32;23565;-93
2022/01/01 07:59:43;;;;;;;;;;;;;;;12.77;59.88;100271.63;4425811;32;20019;-93
2022/01/01 08:02:09;;;;;;;;;;;;;;;12.87;59.89;100266.97;4426861;32;20062;-96
2022/01/01 08:04:34;;;;;;;;;;;;;;;12.97;59.88;100264.91;4428336;32;19996;-94
2022/01/01 08:07:01;;;;;;;;;;;;;;;13.04;59.90;100269.88;4427898;32;20315;-96
2022/01/01 08:09:26;;;;;;;;;;;;;;;12.93;59.89;100272.00;4427806;32;20637;-96
2022/01/01 08:11:53;;;;;;;;;;;;;;;13.18;59.90;100269.44;4427565;32;19974;-95
2022/01/01 08:14:18;;;;;;;;;;;;;;;13.44;59.92;100272.00;4440541;32;19973;-96
2022/01/01 08:16:59;;;;;;;;;;;;;;;13.33;59.91;100287.22;4427844;32;19998;-96
2022/01/01 08:19:25;;;;;;;;;;;;;;;13.58;59.93;100288.97;4440553;32;19997;-96
2022/01/01 08:21:50;;;;;;;;;;;;;;;13.62;59.93;100291.41;4440373;32;19988;-96
2022/01/01 08:24:15;;;;;;;;;;;;;;;13.76;59.93;100286.56;4427469;32;20016;-96
2022/01/01 08:26:41;;;;;;;;;;;;;;;13.70;59.93;100293.75;4427807;32;19997;-96
2022/01/01 08:29:06;;;;;;;;;;;;;;;13.70;59.93;100302.44;4427667;32;19993;-96
2022/01/01 08:31:31;;;;;;;;;;;;;;;13.75;59.93;100307.53;4427269;32;20037;-96
2022/01/01 08:33:56;;;;;;;;;;;;;;;13.77;59.93;100311.81;4427720;32;19988;-96
2022/01/01 08:36:22;;;;;;;;;;;;;;;13.77;59.94;100309.19;4428489;32;20023;-96
2022/01/01 08:38:47;;;;;;;;;;;;;;;13.78;59.93;100300.44;4441061;32;20016;-95
2022/01/01 08:41:13;;;;;;;;;;;;;;;13.81;59.94;100310.78;4427797;32;20651;-96
2022/01/01 08:43:38;;;;;;;;;;;;;;;13.89;59.94;100314.87;4428276;32;20015;-96
2022/01/01 08:46:03;;;;;;;;;;;;;;;13.92;59.94;100309.50;4428307;32;20021;-96
2022/01/01 08:48:28;;;;;;;;;;;;;;;14.13;59.95;100309.56;4427718;32;20037;-96
2022/01/01 08:50:54;;;;;;;;;;;;;;;14.33;59.96;100300.97;4426357;32;19969;-89
2022/01/01 08:53:19;;;;;;;;;;;;;;;14.59;59.98;100304.38;4423217;32;20075;-89
2022/01/01 08:55:44;;;;;;;;;;;;;;;14.71;59.99;100309.97;4436171;32;27037;-90
2022/01/01 08:58:09;;;;;;;;;;;;;;;14.84;59.99;100315.56;4423697;32;20001;-88
2022/01/01 09:00:35;;;;;;;;;;;;;;;14.95;60.00;100318.63;4423772;32;20056;-90
2022/01/01 09:03:00;;;;;;;;;;;;;;;14.86;59.99;100316.34;4436134;32;20027;-87
2022/01/01 09:05:26;;;;;;;;;;;;;;;14.92;59.99;100324.00;4436531;32;20259;-89
2022/01/01 09:07:52;;;;;;;;;;;;;;;14.91;59.99;100322.28;4438010;32;20004;-88
2022/01/01 09:10:19;;;;;;;;;;;;;;;15.00;60.00;100331.53;4436464;32;20261;-89
2022/01/01 09:12:44;;;;;;;;;;;;;;;15.19;60.01;100331.63;4423695;32;20486;-88
2022/01/01 09:15:09;;;;;;;;;;;;;;;15.11;60.01;100334.56;4423455;32;19989;-89
2022/01/01 09:17:34;;;;;;;;;;;;;;;15.13;60.00;100330.09;4423124;32;30549;-89
2022/01/01 09:20:00;;;;;;;;;;;;;;;15.26;60.02;100339.19;4422889;32;33210;-89
2022/01/01 09:22:26;;;;;;;;;;;;;;;15.41;60.03;100332.44;4436066;32;20333;-89
2022/01/01 09:24:51;;;;;;;;;;;;;;;15.56;60.03;100337.00;4436657;32;20718;-89
2022/01/01 09:27:16;;;;;;;;;;;;;;;15.62;60.03;100339.44;4436628;32;19990;-89
2022/01/01 09:29:42;;;;;;;;;;;;;;;15.78;60.05;100331.72;4436250;32;20239;-90
2022/01/01 09:32:07;;;;;;;;;;;;;;;15.89;60.05;100323.38;4423639;32;19985;-89
2022/01/01 09:34:32;;;;;;;;;;;;;;;15.96;60.05;100333.53;4423432;32;20001;-88
2022/01/01 09:36:57;;;;;;;;;;;;;;;16.08;60.05;100334.75;4437785;32;19993;-89
2022/01/01 09:39:24;;;;;;;;;;;;;;;16.18;60.06;100333.41;4437843;32;20363;-90
2022/01/01 09:41:49;;;;;;;;;;;;;;;16.15;60.05;100330.94;4436422;32;20369;-90
2022/01/01 09:44:16;;;;;;;;;;;;;;;16.10;60.06;100330.28;4436554;32;20037;-91
2022/01/01 09:46:42;;;;;;;;;;;;;;;16.18;60.06;100337.81;4436395;32;20449;-90
2022/01/01 09:49:08;;;;;;;;;;;;;;;16.36;60.07;100331.72;4423496;32;19977;-90
2022/01/01 09:51:34;;;;;;;;;;;;;;;16.38;60.07;100323.78;4436320;32;20035;-91
2022/01/01 09:53:59;;;;;;;;;;;;;;;16.27;60.07;100334.75;4436340;32;20257;-91
2022/01/01 09:56:24;;;;;;;;;;;;;;;16.28;60.07;100339.94;4423050;32;25596;-91
2022/01/01 09:58:49;;;;;;;;;;;;;;;16.17;60.06;100329.09;4423422;32;20305;-92
2022/01/01 10:01:15;;;;;;;;;;;;;;;15.99;60.05;100334.31;4423404;32;19997;-91
2022/01/01 10:03:45;;;;;;;;;;;;;;;16.00;60.05;100339.50;4436356;32;20007;-90
2022/01/01 10:06:14;;;;;;;;;;;;;;;15.93;60.04;100336.31;4436314;32;19993;-91
2022/01/01 10:08:49;;;;;;;;;;;;;;;15.87;60.05;100336.59;4436385;32;20027;-91
2022/01/01 10:11:15;;;;;;;;;;;;;;;15.98;60.05;100353.62;4436440;32;19981;-91
2022/01/01 10:13:41;;;;;;;;;;;;;;;16.16;60.06;100343.13;4436264;32;20311;-91
2022/01/01 10:16:07;;;;;;;;;;;;;;;16.16;60.06;100345.78;4436312;32;20095;-90
2022/01/01 10:18:33;;;;;;;;;;;;;;;16.04;60.06;100340.19;4435550;32;20272;-92
2022/01/01 10:21:05;;;;;;;;;;;;;;;15.90;60.05;100341.69;4436047;32;20009;-91
2022/01/01 10:23:32;;;;;;;;;;;;;;;15.60;60.03;100359.59;4435688;32;20008;-90
2022/01/01 10:29:08;;;;;;;;;;;;;;;15.51;60.02;100346.88;4435875;32;19988;-91
2022/01/01 10:31:34;;;;;;;;;;;;;;;15.59;60.03;100342.16;4437055;32;19981;-90
2022/01/01 10:33:59;;;;;;;;;;;;;;;15.79;60.04;100353.56;4422815;32;20013;-90
2022/01/01 10:36:24;;;;;;;;;;;;;;;15.68;60.04;100345.31;4435692;32;19994;-91
2022/01/01 10:38:49;;;;;;;;;;;;;;;15.60;60.03;100343.00;4437247;32;27331;-92
2022/01/01 10:41:16;;;;;;;;;;;;;;;15.77;60.04;100353.62;4424878;32;19986;-94
2022/01/01 10:43:42;;;;;;;;;;;;;;;15.91;60.04;100353.03;4438507;32;19994;-92
2022/01/01 10:46:14;;;;;;;;;;;;;;;16.14;60.07;100355.50;4439776;32;20039;-94
2022/01/01 10:49:08;;;;;;;;;;;;;;;16.02;60.06;100356.03;4439607;32;20004;-93
2022/01/01 10:51:37;;;;;;;;;;;;;;;16.02;60.06;100360.44;4426122;32;19981;-94
2022/01/01 10:54:02;;;;;;;;;;;;;;;16.09;60.06;100357.47;4439522;32;19990;-93
2022/01/01 10:56:28;;;;;;;;;;;;;;;16.10;60.06;100361.81;4439439;32;20047;-93
2022/01/01 10:59:03;;;;;;;;;;;;;;;16.15;60.05;100357.19;4439789;32;20022;-93
2022/01/01 11:01:28;;;;;;;;;;;;;;;16.12;60.06;100362.59;4428347;32;19981;-95
2022/01/01 11:03:54;;;;;;;;;;;;;;;16.08;60.05;100355.75;4438650;32;20031;-94
2022/01/01 11:06:19;;;;;;;;;;;;;;;16.07;60.06;100359.28;4426204;32;20032;-93
2022/01/01 11:08:45;;;;;;;;;;;;;;;16.14;60.06;100355.50;4425911;32;19989;-93
2022/01/01 11:11:12;;;;;;;;;;;;;;;16.00;60.05;100362.28;4439372;32;19977;-94
2022/01/01 11:13:37;;;;;;;;;;;;;;;16.18;60.07;100362.31;4438854;32;20606;-94
2022/01/01 11:16:03;;;;;;;;;;;;;;;16.17;60.06;100360.59;4425423;32;19993;-92
2022/01/01 11:18:28;;;;;;;;;;;;;;;16.33;60.08;100359.91;4439000;32;20319;-91
2022/01/01 11:20:53;;;;;;;;;;;;;;;16.38;60.07;100360.56;4425766;32;20274;-91
2022/01/01 11:23:19;;;;;;;;;;;;;;;16.30;60.07;100353.00;4426380;32;20363;-90
2022/01/01 11:25:44;;;;;;;;;;;;;;;16.23;60.06;100356.84;4438502;32;20009;-90
2022/01/01 11:28:10;;;;;;;;;;;;;;;16.35;60.07;100365.94;4424929;32;30003;-93
2022/01/01 11:30:38;;;;;;;;;;;;;;;16.45;60.07;100359.34;4439308;32;20009;-93
2022/01/01 11:33:06;;;;;;;;;;;;;;;16.57;60.09;100353.53;4426140;32;19977;-92
2022/01/01 11:35:33;;;;;;;;;;;;;;;16.53;60.08;100346.69;4426631;32;20350;-94
2022/01/01 11:38:05;;;;;;;;;;;;;;;16.41;60.08;100339.38;4439394;32;20109;-92
2022/01/01 11:40:41;;;;;;;;;;;;;;;16.47;60.08;100339.94;4438922;32;20870;-93
2022/01/01 11:43:07;;;;;;;;;;;;;;;16.33;60.07;100346.78;4438669;32;20032;-91
2022/01/01 11:45:44;;;;;;;;;;;;;;;16.46;60.08;100345.28;4438211;32;20318;-93
2022/01/01 11:48:28;;;;;;;;;;;;;;;16.38;60.07;100343.00;4438519;32;19950;-91
2022/01/01 11:50:53;;;;;;;;;;;;;;;16.71;60.10;100340.59;4425934;32;19989;-90
2022/01/01 11:53:31;;;;;;;;;;;;;;;16.61;60.09;100351.59;4439043;32;20251;-92
2022/01/01 11:56:06;;;;;;;;;;;;;;;16.37;60.07;100353.59;4437898;32;20055;-91
2022/01/01 11:58:52;;;;;;;;;;;;;;;16.45;60.08;100346.19;4438264;32;19974;-91
2022/01/01 12:01:21;;;;;;;;;;;;;;;16.48;60.08;100353.94;4438471;32;19989;-91
2022/01/01 12:03:50;;;;;;;;;;;;;;;16.56;60.09;100362.28;4438568;32;19997;-92
2022/01/01 12:06:15;;;;;;;;;;;;;;;16.58;60.09;100363.09;4438832;32;20012;-93
2022/01/01 12:08:41;;;;;;;;;;;;;;;16.57;60.09;100358.78;4425893;32;21081;-91
2022/01/01 12:11:07;;;;;;;;;;;;;;;16.64;60.09;100368.06;4438757;32;19973;-92
2022/01/01 12:13:34;;;;;;;;;;;;;;;16.51;60.08;100365.16;4437929;32;20004;-90
2022/01/01 12:16:00;;;;;;;;;;;;;;;16.38;60.07;100369.28;4437613;32;20045;-92
2022/01/01 12:18:26;;;;;;;;;;;;;;;16.36;60.07;100370.28;4424852;32;20001;-91
2022/01/01 12:20:56;;;;;;;;;;;;;;;16.33;60.08;100359.91;4425521;32;20060;-92
2022/01/01 12:23:22;;;;;;;;;;;;;;;16.39;60.08;100359.63;4425689;32;19993;-92
2022/01/01 12:25:48;;;;;;;;;;;;;;;16.22;60.06;100357.75;4437714;32;20662;-90
2022/01/01 12:28:15;;;;;;;;;;;;;;;15.89;60.05;100368.00;4437982;32;20019;-93
2022/01/01 12:30:53;;;;;;;;;;;;;;;15.92;60.05;100371.34;4425420;32;20005;-91
2022/01/01 12:33:22;;;;;;;;;;;;;;;15.80;60.05;100371.88;4438112;32;20635;-92
2022/01/01 12:35:47;;;;;;;;;;;;;;;15.67;60.03;100380.38;4425552;32;20063;-92
2022/01/01 12:38:17;;;;;;;;;;;;;;;15.76;60.04;100379.97;4439010;32;19982;-92
2022/01/01 12:40:55;;;;;;;;;;;;;;;15.68;60.04;100382.06;4437065;32;20329;-92